createdAt,value
2023-04-30T00:00:57.596Z,0.90
2023-04-30T00:01:57.608Z,1.17
2023-04-30T00:02:57.817Z,1.07
2023-04-30T00:03:57.957Z,1.15
2023-04-30T00:04:57.693Z,1.15
2023-04-30T00:05:57.765Z,1.03
2023-04-30T00:06:57.764Z,1.22
2023-04-30T00:07:57.786Z,1.09
2023-04-30T00:08:57.854Z,1.00
2023-04-30T00:09:57.859Z,1.14
2023-04-30T00:10:57.888Z,0.93
2023-04-30T00:11:57.927Z,1.50
2023-04-30T00:12:57.908Z,1.08
2023-04-30T00:13:57.966Z,0.97
2023-04-30T00:14:57.990Z,1.11
2023-04-30T00:15:58.986Z,1.26
2023-04-30T00:16:58.040Z,1.10
2023-04-30T00:17:58.101Z,1.22
2023-04-30T00:18:58.043Z,0.92
2023-04-30T00:19:58.171Z,1.15
2023-04-30T00:20:58.104Z,1.14
2023-04-30T00:21:58.129Z,1.17
2023-04-30T00:22:58.145Z,1.46
2023-04-30T00:23:58.133Z,1.09
2023-04-30T00:24:58.141Z,1.07
2023-04-30T00:25:58.519Z,0.93
2023-04-30T00:26:58.208Z,1.07
2023-04-30T00:27:58.166Z,1.12
2023-04-30T00:28:58.216Z,0.99
2023-04-30T00:29:58.221Z,1.03
2023-04-30T00:30:58.511Z,1.28
2023-04-30T00:31:58.362Z,0.87
2023-04-30T00:32:58.296Z,1.26
2023-04-30T00:33:59.264Z,1.03
2023-04-30T00:34:58.253Z,1.15
2023-04-30T00:35:58.478Z,1.07
2023-04-30T00:36:58.278Z,1.01
2023-04-30T00:37:58.259Z,1.11
2023-04-30T00:38:58.258Z,1.04
2023-04-30T00:39:58.221Z,1.10
2023-04-30T00:40:58.221Z,1.39
2023-04-30T00:41:58.224Z,1.05
2023-04-30T00:42:58.209Z,1.26
2023-04-30T00:43:58.203Z,1.20
2023-04-30T00:44:58.185Z,0.98
2023-04-30T00:45:58.549Z,0.92
2023-04-30T00:46:58.160Z,0.96
2023-04-30T00:47:58.254Z,1.35
2023-04-30T00:48:58.175Z,0.90
2023-04-30T00:49:58.162Z,1.29
2023-04-30T00:50:58.479Z,1.20
2023-04-30T00:51:58.160Z,0.95
2023-04-30T00:52:58.139Z,1.04
2023-04-30T00:53:58.169Z,0.94
2023-04-30T00:54:58.190Z,1.12
2023-04-30T00:55:58.508Z,1.07
2023-04-30T00:56:58.236Z,0.95
2023-04-30T00:57:58.277Z,1.13
2023-04-30T00:58:58.277Z,1.04
2023-04-30T00:59:58.287Z,1.27
2023-04-30T01:00:58.329Z,1.09
2023-04-30T01:01:58.295Z,1.08
2023-04-30T01:02:58.428Z,1.20
2023-04-30T01:03:58.351Z,1.01
2023-04-30T01:04:58.348Z,1.35
2023-04-30T01:05:58.546Z,0.89
2023-04-30T01:08:08.323Z,1.18
2023-04-30T01:09:08.316Z,1.19
2023-04-30T01:10:08.303Z,1.04
2023-04-30T01:11:08.286Z,0.84
2023-04-30T01:12:08.264Z,1.08
2023-04-30T01:13:08.229Z,1.37
2023-04-30T01:14:08.256Z,1.02
2023-04-30T01:15:08.214Z,1.04
2023-04-30T01:16:08.320Z,1.04
2023-04-30T01:17:08.253Z,1.08
2023-04-30T01:18:08.267Z,1.17
2023-04-30T01:19:08.248Z,1.26
2023-04-30T01:20:08.230Z,1.05
2023-04-30T01:21:08.196Z,1.36
2023-04-30T01:22:08.184Z,1.23
2023-04-30T01:23:08.172Z,1.30
2023-04-30T01:24:08.176Z,1.04
2023-04-30T01:25:08.190Z,1.10
2023-04-30T01:26:08.151Z,1.00
2023-04-30T01:27:08.175Z,1.14
2023-04-30T01:28:08.159Z,1.05
2023-04-30T01:29:08.125Z,0.90
2023-04-30T01:30:08.783Z,1.02
2023-04-30T01:31:08.264Z,1.12
2023-04-30T01:32:08.134Z,1.28
2023-04-30T01:33:08.205Z,1.01
2023-04-30T01:34:08.090Z,0.98
2023-04-30T01:35:08.112Z,1.00
2023-04-30T01:36:08.111Z,1.01
2023-04-30T01:37:08.076Z,1.17
2023-04-30T01:38:08.061Z,1.54
2023-04-30T01:39:08.084Z,0.98
2023-04-30T01:40:08.056Z,0.86
2023-04-30T01:41:08.277Z,1.03
2023-04-30T01:42:08.043Z,1.09
2023-04-30T01:43:08.049Z,0.97
2023-04-30T01:44:08.046Z,1.10
2023-04-30T01:45:08.061Z,1.05
2023-04-30T01:46:08.034Z,1.02
2023-04-30T01:47:08.038Z,1.26
2023-04-30T01:48:08.075Z,1.16
2023-04-30T01:49:08.019Z,1.05
2023-04-30T01:50:08.024Z,1.17
2023-04-30T01:51:07.993Z,0.97
2023-04-30T01:52:08.773Z,1.13
2023-04-30T01:53:07.982Z,1.22
2023-04-30T01:54:07.991Z,0.97
2023-04-30T01:55:07.986Z,0.95
2023-04-30T01:56:07.954Z,0.99
2023-04-30T01:57:07.954Z,0.92
2023-04-30T01:58:07.946Z,1.03
2023-04-30T01:59:07.945Z,0.90
2023-04-30T02:00:08.983Z,1.23
2023-04-30T02:01:07.950Z,1.23
2023-04-30T02:02:07.929Z,1.33
2023-04-30T02:03:07.975Z,0.96
2023-04-30T02:04:07.960Z,1.27
2023-04-30T02:05:07.880Z,1.31
2023-04-30T02:06:07.941Z,1.07
2023-04-30T02:07:07.872Z,0.99
2023-04-30T02:08:07.871Z,1.05
2023-04-30T02:09:07.877Z,1.10
2023-04-30T02:10:07.830Z,1.00
2023-04-30T02:11:07.861Z,1.04
2023-04-30T02:12:07.875Z,1.12
2023-04-30T02:13:07.833Z,1.19
2023-04-30T02:14:07.883Z,1.15
2023-04-30T02:15:08.809Z,1.00
2023-04-30T02:16:07.859Z,1.06
2023-04-30T02:17:07.830Z,1.20
2023-04-30T02:18:08.812Z,1.23
2023-04-30T02:19:07.799Z,1.12
2023-04-30T02:20:07.781Z,1.35
2023-04-30T02:21:07.798Z,1.18
2023-04-30T02:22:07.760Z,1.20
2023-04-30T02:23:07.736Z,1.26
2023-04-30T02:24:07.782Z,1.33
2023-04-30T02:25:07.727Z,1.15
2023-04-30T02:26:07.744Z,1.26
2023-04-30T02:27:07.735Z,1.34
2023-04-30T02:28:07.757Z,1.30
2023-04-30T02:29:07.703Z,1.14
2023-04-30T02:30:07.712Z,1.29
2023-04-30T02:31:07.753Z,1.25
2023-04-30T02:32:07.678Z,1.07
2023-04-30T02:33:07.743Z,1.04
2023-04-30T02:34:07.677Z,1.15
2023-04-30T02:35:07.681Z,1.28
2023-04-30T02:36:07.667Z,1.14
2023-04-30T02:37:07.638Z,1.41
2023-04-30T02:38:07.654Z,1.03
2023-04-30T02:39:07.629Z,1.35
2023-04-30T02:40:07.622Z,1.18
2023-04-30T02:41:07.630Z,1.07
2023-04-30T02:42:07.648Z,1.23
2023-04-30T02:43:07.620Z,0.95
2023-04-30T02:44:07.741Z,1.15
2023-04-30T02:45:07.693Z,1.35
2023-04-30T02:46:07.749Z,1.06
2023-04-30T02:47:07.692Z,1.09
2023-04-30T02:48:07.719Z,1.43
2023-04-30T02:49:07.743Z,1.23
2023-04-30T02:50:07.729Z,1.35
2023-04-30T02:51:07.751Z,1.12
2023-04-30T02:52:07.725Z,1.33
2023-04-30T02:53:07.718Z,1.10
2023-04-30T02:54:07.754Z,1.07
2023-04-30T02:55:07.738Z,1.22
2023-04-30T02:56:07.721Z,1.14
2023-04-30T02:57:07.706Z,1.43
2023-04-30T02:58:07.701Z,1.39
2023-04-30T02:59:07.710Z,1.20
2023-04-30T03:00:07.679Z,1.50
2023-04-30T03:01:07.763Z,1.28
2023-04-30T03:02:07.683Z,1.17
2023-04-30T03:03:07.867Z,1.23
2023-04-30T03:04:07.652Z,1.04
2023-04-30T03:05:07.645Z,1.36
2023-04-30T03:06:07.687Z,1.05
2023-04-30T03:07:07.633Z,1.48
2023-04-30T03:08:07.617Z,0.95
2023-04-30T03:09:07.620Z,1.16
2023-04-30T03:10:07.606Z,1.27
2023-04-30T03:11:07.642Z,1.53
2023-04-30T03:12:07.583Z,1.60
2023-04-30T03:13:07.594Z,1.06
2023-04-30T03:14:07.624Z,1.33
2023-04-30T03:15:07.569Z,1.35
2023-04-30T03:16:07.584Z,1.17
2023-04-30T03:17:07.545Z,1.44
2023-04-30T03:18:07.564Z,1.53
2023-04-30T03:19:07.583Z,1.43
2023-04-30T03:20:07.568Z,1.47
2023-04-30T03:21:07.621Z,1.34
2023-04-30T03:22:07.623Z,1.31
2023-04-30T03:23:07.631Z,1.30
2023-04-30T03:24:07.640Z,1.43
2023-04-30T03:25:07.617Z,1.40
2023-04-30T03:26:07.670Z,1.21
2023-04-30T03:27:07.670Z,1.41
2023-04-30T03:28:07.683Z,1.12
2023-04-30T03:29:07.681Z,1.30
2023-04-30T03:30:07.717Z,0.94
2023-04-30T03:31:07.757Z,1.65
2023-04-30T03:32:07.741Z,1.21
2023-04-30T03:33:07.951Z,1.10
2023-04-30T03:34:07.778Z,1.16
2023-04-30T03:35:07.798Z,1.33
2023-04-30T03:36:07.814Z,1.06
2023-04-30T03:37:07.834Z,1.39
2023-04-30T03:38:07.847Z,1.38
2023-04-30T03:39:07.858Z,1.38
2023-04-30T03:40:07.921Z,1.60
2023-04-30T03:41:08.354Z,1.46
2023-04-30T03:42:07.883Z,1.38
2023-04-30T03:43:07.937Z,1.64
2023-04-30T03:44:07.919Z,1.26
2023-04-30T03:45:07.932Z,1.44
2023-04-30T03:46:07.999Z,1.45
2023-04-30T03:47:07.970Z,1.68
2023-04-30T03:48:08.057Z,1.46
2023-04-30T03:49:07.985Z,1.18
2023-04-30T03:50:07.986Z,1.59
2023-04-30T03:51:08.007Z,1.17
2023-04-30T03:52:08.313Z,1.45
2023-04-30T03:53:08.051Z,1.45
2023-04-30T03:54:08.073Z,1.40
2023-04-30T03:55:08.079Z,1.76
2023-04-30T03:56:08.182Z,1.30
2023-04-30T03:57:08.173Z,1.63
2023-04-30T03:58:08.135Z,1.38
2023-04-30T03:59:08.128Z,1.39
2023-04-30T04:00:08.141Z,1.48
2023-04-30T04:01:08.176Z,1.80
2023-04-30T04:02:08.204Z,1.22
2023-04-30T04:03:08.222Z,1.67
2023-04-30T04:04:08.290Z,1.42
2023-04-30T04:05:08.221Z,1.65
2023-04-30T04:06:08.288Z,1.70
2023-04-30T04:07:08.261Z,1.53
2023-04-30T04:08:08.262Z,1.40
2023-04-30T04:09:08.301Z,1.71
2023-04-30T04:10:08.292Z,1.71
2023-04-30T04:11:08.314Z,1.13
2023-04-30T04:12:08.330Z,1.32
2023-04-30T04:13:08.382Z,1.47
2023-04-30T04:14:08.348Z,1.61
2023-04-30T04:15:08.367Z,1.79
2023-04-30T04:16:08.936Z,1.71
2023-04-30T04:17:08.407Z,1.55
2023-04-30T04:18:08.470Z,1.51
2023-04-30T04:19:08.393Z,1.55
2023-04-30T04:20:08.441Z,1.49
2023-04-30T04:21:08.452Z,1.99
2023-04-30T04:22:08.466Z,1.45
2023-04-30T04:23:08.485Z,1.79
2023-04-30T04:24:08.516Z,1.35
2023-04-30T04:25:08.500Z,1.33
2023-04-30T04:26:08.531Z,1.89
2023-04-30T04:27:08.833Z,1.88
2023-04-30T04:28:08.540Z,1.60
2023-04-30T04:29:08.545Z,1.51
2023-04-30T04:30:08.556Z,1.42
2023-04-30T04:31:08.610Z,1.49
2023-04-30T04:32:08.613Z,2.01
2023-04-30T04:33:08.648Z,1.58
2023-04-30T04:34:08.637Z,1.62
2023-04-30T04:35:08.647Z,1.30
2023-04-30T04:36:08.633Z,1.50
2023-04-30T04:37:08.713Z,1.67
2023-04-30T04:38:08.699Z,1.42
2023-04-30T04:39:08.679Z,2.10
2023-04-30T04:40:08.708Z,1.91
2023-04-30T04:41:08.722Z,1.59
2023-04-30T04:42:08.778Z,1.47
2023-04-30T04:43:08.789Z,1.86
2023-04-30T04:44:08.792Z,1.99
2023-04-30T04:45:08.830Z,1.58
2023-04-30T04:46:08.901Z,1.64
2023-04-30T04:47:08.861Z,1.71
2023-04-30T04:48:08.908Z,1.63
2023-04-30T04:49:08.843Z,1.54
2023-04-30T04:50:08.894Z,1.90
2023-04-30T04:51:08.846Z,1.54
2023-04-30T04:52:09.357Z,1.88
2023-04-30T04:53:08.929Z,1.73
2023-04-30T04:54:08.923Z,1.81
2023-04-30T04:55:08.921Z,1.50
2023-04-30T04:56:08.984Z,1.97
2023-04-30T04:57:08.977Z,1.96
2023-04-30T04:58:08.970Z,1.95
2023-04-30T04:59:09.003Z,1.81
2023-04-30T05:00:09.032Z,1.66
2023-04-30T05:01:09.027Z,2.03
2023-04-30T05:02:09.096Z,1.72
2023-04-30T05:03:09.144Z,2.06
2023-04-30T05:04:09.076Z,1.73
2023-04-30T05:05:09.086Z,2.13
2023-04-30T05:06:09.246Z,1.73
2023-04-30T05:07:09.144Z,1.77
2023-04-30T05:08:09.136Z,1.78
2023-04-30T05:09:09.176Z,1.70
2023-04-30T05:10:09.166Z,1.68
2023-04-30T05:11:09.177Z,1.57
2023-04-30T05:12:09.197Z,1.97
2023-04-30T05:13:09.207Z,1.75
2023-04-30T05:14:09.261Z,1.88
2023-04-30T05:15:09.266Z,2.00
2023-04-30T05:16:09.326Z,2.07
2023-04-30T05:17:09.275Z,2.02
2023-04-30T05:18:09.421Z,2.10
2023-04-30T05:19:09.338Z,1.72
2023-04-30T05:20:09.316Z,1.61
2023-04-30T05:21:09.340Z,1.89
2023-04-30T05:22:09.373Z,1.89
2023-04-30T05:23:09.380Z,1.89
2023-04-30T05:24:09.351Z,1.67
2023-04-30T05:25:09.372Z,1.78
2023-04-30T05:26:09.394Z,1.88
2023-04-30T05:27:09.415Z,2.19
2023-04-30T05:28:09.464Z,2.02
2023-04-30T05:29:09.459Z,1.72
2023-04-30T05:30:09.483Z,2.06
2023-04-30T05:31:09.532Z,2.13
2023-04-30T05:32:09.920Z,1.91
2023-04-30T05:33:09.564Z,2.22
2023-04-30T05:34:09.609Z,1.64
2023-04-30T05:35:09.574Z,1.85
2023-04-30T05:36:09.561Z,1.84
2023-04-30T05:37:09.600Z,1.97
2023-04-30T05:38:09.584Z,1.93
2023-04-30T05:39:09.599Z,2.06
2023-04-30T05:40:09.648Z,2.11
2023-04-30T05:41:09.675Z,2.04
2023-04-30T05:42:09.668Z,2.03
2023-04-30T05:43:09.703Z,2.01
2023-04-30T05:44:09.718Z,1.51
2023-04-30T05:45:09.714Z,1.72
2023-04-30T05:46:09.813Z,2.21
2023-04-30T05:47:09.778Z,2.25
2023-04-30T05:48:09.787Z,2.51
2023-04-30T05:49:09.785Z,1.76
2023-04-30T05:50:09.773Z,2.09
2023-04-30T05:51:09.820Z,2.26
2023-04-30T05:52:09.834Z,2.39
2023-04-30T05:53:09.881Z,1.81
2023-04-30T05:54:09.879Z,2.20
2023-04-30T05:55:09.894Z,1.93
2023-04-30T05:56:09.935Z,2.14
2023-04-30T05:57:09.962Z,1.72
2023-04-30T05:58:09.976Z,1.97
2023-04-30T05:59:09.979Z,1.70
2023-04-30T06:00:10.016Z,2.07
2023-04-30T06:01:10.031Z,2.82
2023-04-30T06:02:10.079Z,1.84
2023-04-30T06:03:10.071Z,2.03
2023-04-30T06:04:10.072Z,1.93
2023-04-30T06:05:10.141Z,2.25
2023-04-30T06:06:10.133Z,2.33
2023-04-30T06:07:10.137Z,2.25
2023-04-30T06:08:10.124Z,1.99
2023-04-30T06:09:10.158Z,2.05
2023-04-30T06:10:10.154Z,2.00
2023-04-30T06:11:10.168Z,2.23
2023-04-30T06:12:10.203Z,2.01
2023-04-30T06:13:10.241Z,1.98
2023-04-30T06:14:10.257Z,1.85
2023-04-30T06:15:10.270Z,1.93
2023-04-30T06:16:10.302Z,2.52
2023-04-30T06:17:10.308Z,1.99
2023-04-30T06:18:10.334Z,2.31
2023-04-30T06:19:10.376Z,2.17
2023-04-30T06:20:10.338Z,2.09
2023-04-30T06:21:10.334Z,2.15
2023-04-30T06:22:10.367Z,1.95
2023-04-30T06:23:10.397Z,1.86
2023-04-30T06:24:10.393Z,2.12
2023-04-30T06:25:10.408Z,2.40
2023-04-30T06:26:10.408Z,2.12
2023-04-30T06:27:10.485Z,1.95
2023-04-30T06:28:10.664Z,2.28
2023-04-30T06:29:10.503Z,1.94
2023-04-30T06:30:10.512Z,1.93
2023-04-30T06:31:10.524Z,2.21
2023-04-30T06:32:10.553Z,2.04
2023-04-30T06:33:10.525Z,2.01
2023-04-30T06:34:10.555Z,2.02
2023-04-30T06:35:10.554Z,2.39
2023-04-30T06:36:10.572Z,1.76
2023-04-30T06:37:10.582Z,1.95
2023-04-30T06:38:10.641Z,2.25
2023-04-30T06:39:10.627Z,2.45
2023-04-30T06:40:10.673Z,2.08
2023-04-30T06:41:10.670Z,1.86
2023-04-30T06:42:10.691Z,2.36
2023-04-30T06:43:10.698Z,2.55
2023-04-30T06:44:10.886Z,2.09
2023-04-30T06:45:10.755Z,1.98
2023-04-30T06:46:10.773Z,2.43
2023-04-30T06:47:10.786Z,2.05
2023-04-30T06:48:10.820Z,2.52
2023-04-30T06:49:10.835Z,2.30
2023-04-30T06:50:10.822Z,2.27
2023-04-30T06:51:11.046Z,1.97
2023-04-30T06:52:10.870Z,2.01
2023-04-30T06:53:10.872Z,2.28
2023-04-30T06:54:10.988Z,2.17
2023-04-30T06:55:10.914Z,2.19
2023-04-30T06:56:10.928Z,2.20
2023-04-30T06:57:10.935Z,2.30
2023-04-30T06:58:10.956Z,2.08
2023-04-30T06:59:10.969Z,2.18
2023-04-30T07:00:10.987Z,2.28
2023-04-30T07:01:11.055Z,2.17
2023-04-30T07:02:11.388Z,1.85
2023-04-30T07:03:11.177Z,2.57
2023-04-30T07:04:11.039Z,2.22
2023-04-30T07:05:11.058Z,2.57
2023-04-30T07:06:11.129Z,2.28
2023-04-30T07:07:11.380Z,2.10
2023-04-30T07:08:11.107Z,2.19
2023-04-30T07:09:11.149Z,2.55
2023-04-30T07:10:11.152Z,2.00
2023-04-30T07:11:11.201Z,1.90
2023-04-30T07:12:11.421Z,2.12
2023-04-30T07:13:11.240Z,2.28
2023-04-30T07:14:11.227Z,2.53
2023-04-30T07:15:11.220Z,2.45
2023-04-30T07:16:11.397Z,1.88
2023-04-30T07:17:11.277Z,2.12
2023-04-30T07:18:11.400Z,2.28
2023-04-30T07:19:11.318Z,1.80
2023-04-30T07:20:11.313Z,2.21
2023-04-30T07:21:11.321Z,2.29
2023-04-30T07:22:11.339Z,2.20
2023-04-30T07:23:11.340Z,1.88
2023-04-30T07:24:11.379Z,2.00
2023-04-30T07:25:11.388Z,2.14
2023-04-30T07:26:11.405Z,2.25
2023-04-30T07:27:11.434Z,2.48
2023-04-30T07:28:11.464Z,2.35
2023-04-30T07:29:11.450Z,2.12
2023-04-30T07:30:11.493Z,2.23
2023-04-30T07:31:11.507Z,2.35
2023-04-30T07:32:11.599Z,2.10
2023-04-30T07:33:11.577Z,1.93
2023-04-30T07:34:11.519Z,2.12
2023-04-30T07:35:11.568Z,2.38
2023-04-30T07:36:11.580Z,2.17
2023-04-30T07:37:11.883Z,2.37
2023-04-30T07:38:11.591Z,2.32
2023-04-30T07:39:11.664Z,2.28
2023-04-30T07:40:13.235Z,2.25
2023-04-30T07:41:11.644Z,2.46
2023-04-30T07:42:11.667Z,2.62
2023-04-30T07:43:11.670Z,2.89
2023-04-30T07:44:11.706Z,2.18
2023-04-30T07:45:11.688Z,2.32
2023-04-30T07:46:11.786Z,2.35
2023-04-30T07:47:11.728Z,2.35
2023-04-30T07:48:11.749Z,2.27
2023-04-30T07:49:11.768Z,2.56
2023-04-30T07:50:11.771Z,2.31
2023-04-30T07:51:11.769Z,2.44
2023-04-30T07:52:11.779Z,2.50
2023-04-30T07:53:11.787Z,2.01
2023-04-30T07:54:11.840Z,2.50
2023-04-30T07:55:11.836Z,2.65
2023-04-30T07:56:11.836Z,2.16
2023-04-30T07:57:11.877Z,2.55
2023-04-30T07:58:11.895Z,2.20
2023-04-30T07:59:11.905Z,2.06
2023-04-30T08:00:11.946Z,2.45
2023-04-30T08:01:11.952Z,2.54
2023-04-30T08:02:11.986Z,2.38
2023-04-30T08:03:12.052Z,2.63
2023-04-30T08:04:12.065Z,2.30
2023-04-30T08:05:11.976Z,2.08
2023-04-30T08:06:12.095Z,2.23
2023-04-30T08:07:12.029Z,2.43
2023-04-30T08:08:12.033Z,2.17
2023-04-30T08:09:12.029Z,2.24
2023-04-30T08:10:12.086Z,2.88
2023-04-30T08:11:12.102Z,2.29
2023-04-30T08:12:12.094Z,2.59
2023-04-30T08:13:12.137Z,2.41
2023-04-30T08:14:12.166Z,2.24
2023-04-30T08:15:12.160Z,2.65
2023-04-30T08:16:12.208Z,2.15
2023-04-30T08:17:12.168Z,2.58
2023-04-30T08:18:12.241Z,2.06
2023-04-30T08:19:12.225Z,2.14
2023-04-30T08:20:12.208Z,2.49
2023-04-30T08:21:12.261Z,2.66
2023-04-30T08:22:12.271Z,1.95
2023-04-30T08:23:12.289Z,2.60
2023-04-30T08:24:12.288Z,2.49
2023-04-30T08:25:12.305Z,2.95
2023-04-30T08:26:12.320Z,2.07
2023-04-30T08:27:12.336Z,2.27
2023-04-30T08:28:12.389Z,2.49
2023-04-30T08:29:12.369Z,2.37
2023-04-30T08:30:12.395Z,2.49
2023-04-30T08:31:12.407Z,2.33
2023-04-30T08:32:12.496Z,2.39
2023-04-30T08:33:12.484Z,2.62
2023-04-30T08:34:12.455Z,2.33
2023-04-30T08:35:12.461Z,2.48
2023-04-30T08:36:12.477Z,2.73
2023-04-30T08:37:12.518Z,2.57
2023-04-30T08:38:12.561Z,2.54
2023-04-30T08:39:12.566Z,2.76
2023-04-30T08:40:12.524Z,2.38
2023-04-30T08:41:12.579Z,2.51
2023-04-30T08:42:12.925Z,2.48
2023-04-30T08:43:12.947Z,2.86
2023-04-30T08:44:12.663Z,2.60
2023-04-30T08:45:12.660Z,2.45
2023-04-30T08:46:12.720Z,2.54
2023-04-30T08:47:12.703Z,2.25
2023-04-30T08:48:12.733Z,2.22
2023-04-30T08:49:12.732Z,2.44
2023-04-30T08:50:12.718Z,2.30
2023-04-30T08:51:12.761Z,2.46
2023-04-30T08:52:12.820Z,2.41
2023-04-30T08:53:12.782Z,2.54
2023-04-30T08:54:12.791Z,2.49
2023-04-30T08:55:12.802Z,2.51
2023-04-30T08:56:12.784Z,2.45
2023-04-30T08:57:12.797Z,2.46
2023-04-30T08:58:12.863Z,2.24
2023-04-30T08:59:12.844Z,2.50
2023-04-30T09:00:12.900Z,2.33
2023-04-30T09:01:12.901Z,2.15
2023-04-30T09:02:12.956Z,2.28
2023-04-30T09:03:13.036Z,2.35
2023-04-30T09:04:12.943Z,2.55
2023-04-30T09:05:12.935Z,2.62
2023-04-30T09:06:13.027Z,3.00
2023-04-30T09:07:12.995Z,2.06
2023-04-30T09:08:13.005Z,2.61
2023-04-30T09:09:12.977Z,2.46
2023-04-30T09:10:13.013Z,2.22
2023-04-30T09:11:13.022Z,2.38
2023-04-30T09:12:13.027Z,2.41
2023-04-30T09:13:13.076Z,2.51
2023-04-30T09:14:13.262Z,2.37
2023-04-30T09:15:13.119Z,2.66
2023-04-30T09:16:13.136Z,2.57
2023-04-30T09:17:13.123Z,2.64
2023-04-30T09:18:13.205Z,2.75
2023-04-30T09:19:13.164Z,2.35
2023-04-30T09:20:13.197Z,2.75
2023-04-30T09:21:13.184Z,2.33
2023-04-30T09:22:13.207Z,2.54
2023-04-30T09:23:13.208Z,2.68
2023-04-30T09:24:13.246Z,2.04
2023-04-30T09:25:13.250Z,2.44
2023-04-30T09:26:13.259Z,2.54
2023-04-30T09:27:13.267Z,3.09
2023-04-30T09:28:13.432Z,2.36
2023-04-30T09:29:13.331Z,2.94
2023-04-30T09:30:13.327Z,2.75
2023-04-30T09:31:13.348Z,2.61
2023-04-30T09:32:13.345Z,2.43
2023-04-30T09:33:13.489Z,2.24
2023-04-30T09:34:13.371Z,2.70
2023-04-30T09:35:13.381Z,2.55
2023-04-30T09:36:13.381Z,2.39
2023-04-30T09:37:13.911Z,2.46
2023-04-30T09:38:13.445Z,2.87
2023-04-30T09:39:15.584Z,2.14
2023-04-30T09:40:13.785Z,2.59
2023-04-30T09:41:13.717Z,2.46
2023-04-30T09:42:13.697Z,2.14
2023-04-30T09:43:13.757Z,2.55
2023-04-30T09:44:13.766Z,2.76
2023-04-30T09:45:13.774Z,2.59
2023-04-30T09:46:13.806Z,2.67
2023-04-30T09:47:13.872Z,2.30
2023-04-30T09:48:17.646Z,2.63
2023-04-30T09:49:13.842Z,2.58
2023-04-30T09:50:13.815Z,2.58
2023-04-30T09:51:13.765Z,2.13
2023-04-30T09:52:13.786Z,2.59
2023-04-30T09:53:13.955Z,2.55
2023-04-30T09:54:13.753Z,2.64
2023-04-30T09:55:13.781Z,2.54
2023-04-30T09:56:13.732Z,2.54
2023-04-30T09:57:13.737Z,2.64
2023-04-30T09:58:13.757Z,2.38
2023-04-30T09:59:13.727Z,2.51
2023-04-30T10:00:13.736Z,2.38
2023-04-30T10:01:13.721Z,2.71
2023-04-30T10:02:13.710Z,2.52
2023-04-30T10:03:13.745Z,2.12
2023-04-30T10:04:13.753Z,2.31
2023-04-30T10:05:13.705Z,2.43
2023-04-30T10:06:13.728Z,2.40
2023-04-30T10:07:15.889Z,2.49
2023-04-30T10:08:13.679Z,2.77
2023-04-30T10:09:13.661Z,2.42
2023-04-30T10:10:13.663Z,2.36
2023-04-30T10:11:13.638Z,2.28
2023-04-30T10:12:13.621Z,2.57
2023-04-30T10:13:13.629Z,2.61
2023-04-30T10:14:13.631Z,2.33
2023-04-30T10:15:13.644Z,2.18
2023-04-30T10:16:13.627Z,2.02
2023-04-30T10:17:13.608Z,2.77
2023-04-30T10:18:13.643Z,2.33
2023-04-30T10:19:13.620Z,2.75
2023-04-30T10:20:13.595Z,2.34
2023-04-30T10:21:13.573Z,2.40
2023-04-30T10:22:13.673Z,2.34
2023-04-30T10:23:13.956Z,2.79
2023-04-30T10:24:13.567Z,2.74
2023-04-30T10:25:13.590Z,2.69
2023-04-30T10:26:13.578Z,2.40
2023-04-30T10:27:13.534Z,2.29
2023-04-30T10:28:13.539Z,2.55
2023-04-30T10:29:13.529Z,1.99
2023-04-30T10:30:13.529Z,2.14
2023-04-30T10:31:13.496Z,2.28
2023-04-30T10:32:13.531Z,2.43
2023-04-30T10:33:16.270Z,2.62
2023-04-30T10:34:13.484Z,2.42
2023-04-30T10:35:13.521Z,2.58
2023-04-30T10:36:13.496Z,2.20
2023-04-30T10:37:13.476Z,2.45
2023-04-30T10:38:13.465Z,2.19
2023-04-30T10:39:13.450Z,1.89
2023-04-30T10:40:13.487Z,2.05
2023-04-30T10:41:13.467Z,2.50
2023-04-30T10:42:13.442Z,2.30
2023-04-30T10:43:13.439Z,2.02
2023-04-30T10:44:13.412Z,2.12
2023-04-30T10:45:13.418Z,2.32
2023-04-30T10:46:13.418Z,2.59
2023-04-30T10:47:13.405Z,2.49
2023-04-30T10:48:13.491Z,2.21
2023-04-30T10:49:13.422Z,2.13
2023-04-30T10:50:13.388Z,2.35
2023-04-30T10:51:13.362Z,2.37
2023-04-30T10:52:13.378Z,2.30
2023-04-30T10:53:13.337Z,2.10
2023-04-30T10:54:13.347Z,2.08
2023-04-30T10:55:13.359Z,2.04
2023-04-30T10:56:13.354Z,2.31
2023-04-30T10:57:13.375Z,2.42
2023-04-30T10:58:13.309Z,2.11
2023-04-30T10:59:13.345Z,2.12
2023-04-30T11:00:13.374Z,2.11
2023-04-30T11:01:13.408Z,2.96
2023-04-30T11:02:13.308Z,2.27
2023-04-30T11:03:13.282Z,2.38
2023-04-30T11:04:13.292Z,2.07
2023-04-30T11:05:13.472Z,2.19
2023-04-30T11:06:13.378Z,2.21
2023-04-30T11:07:13.283Z,2.39
2023-04-30T11:08:13.276Z,2.20
2023-04-30T11:09:13.247Z,2.26
2023-04-30T11:10:13.271Z,2.08
2023-04-30T11:11:13.277Z,2.31
2023-04-30T11:12:13.259Z,2.58
2023-04-30T11:13:13.225Z,1.94
2023-04-30T11:14:13.231Z,1.96
2023-04-30T11:15:13.223Z,2.34
2023-04-30T11:16:13.259Z,1.70
2023-04-30T11:17:13.229Z,2.18
2023-04-30T11:18:13.266Z,2.43
2023-04-30T11:19:13.227Z,2.26
2023-04-30T11:20:13.205Z,1.86
2023-04-30T11:21:13.179Z,1.90
2023-04-30T11:22:13.167Z,2.08
2023-04-30T11:23:19.189Z,2.17
2023-04-30T11:24:14.183Z,2.19
2023-04-30T11:25:13.133Z,2.40
2023-04-30T11:26:13.119Z,1.96
2023-04-30T11:27:13.141Z,2.28
2023-04-30T11:28:13.465Z,2.13
2023-04-30T11:29:13.186Z,1.98
2023-04-30T11:30:13.142Z,1.98
2023-04-30T11:31:15.195Z,2.15
2023-04-30T11:32:13.108Z,2.37
2023-04-30T11:33:13.124Z,2.22
2023-04-30T11:34:13.164Z,2.52
2023-04-30T11:35:13.158Z,2.17
2023-04-30T11:36:13.157Z,2.06
2023-04-30T11:37:13.194Z,2.02
2023-04-30T11:38:13.189Z,2.15
2023-04-30T11:39:13.214Z,2.22
2023-04-30T11:40:13.275Z,2.08
2023-04-30T11:41:13.215Z,1.90
2023-04-30T11:42:13.225Z,2.47
2023-04-30T11:43:13.295Z,2.09
2023-04-30T11:44:13.268Z,2.04
2023-04-30T11:45:13.290Z,2.26
2023-04-30T11:46:13.394Z,2.06
2023-04-30T11:47:13.321Z,1.94
2023-04-30T11:48:13.516Z,2.14
2023-04-30T11:49:13.338Z,2.13
2023-04-30T11:50:13.374Z,2.35
2023-04-30T11:51:13.371Z,1.74
2023-04-30T11:52:13.386Z,2.13
2023-04-30T11:53:13.394Z,2.44
2023-04-30T11:54:13.399Z,3.42
2023-04-30T11:55:13.405Z,2.12
2023-04-30T11:56:13.442Z,2.24
2023-04-30T11:57:13.449Z,2.13
2023-04-30T11:58:13.472Z,2.15
2023-04-30T11:59:13.472Z,1.83
2023-04-30T12:00:13.511Z,2.21
2023-04-30T12:01:13.531Z,2.37
2023-04-30T12:02:13.799Z,1.76
2023-04-30T12:03:13.731Z,2.04
2023-04-30T12:04:13.748Z,1.98
2023-04-30T12:05:13.615Z,1.83
2023-04-30T12:06:13.657Z,2.56
2023-04-30T12:07:13.676Z,2.12
2023-04-30T12:08:13.700Z,1.97
2023-04-30T12:09:13.708Z,2.45
2023-04-30T12:10:13.728Z,2.04
2023-04-30T12:11:13.718Z,2.31
2023-04-30T12:12:13.749Z,2.21
2023-04-30T12:13:13.805Z,2.35
2023-04-30T12:14:13.762Z,2.16
2023-04-30T12:15:13.828Z,1.88
2023-04-30T12:16:13.862Z,1.86
2023-04-30T12:17:13.858Z,1.81
2023-04-30T12:18:13.982Z,2.29
2023-04-30T12:19:13.913Z,1.97
2023-04-30T12:20:13.925Z,1.80
2023-04-30T12:21:13.961Z,1.89
2023-04-30T12:22:14.007Z,1.86
2023-04-30T12:23:14.005Z,2.03
2023-04-30T12:24:14.024Z,1.95
2023-04-30T12:25:14.040Z,2.17
2023-04-30T12:26:14.095Z,1.92
2023-04-30T12:27:14.114Z,1.78
2023-04-30T12:28:14.119Z,2.14
2023-04-30T12:29:15.440Z,1.93
2023-04-30T12:30:14.121Z,1.73
2023-04-30T12:31:14.122Z,1.96
2023-04-30T12:32:14.171Z,1.90
2023-04-30T12:33:14.190Z,2.14
2023-04-30T12:34:14.182Z,2.21
2023-04-30T12:35:14.185Z,2.13
2023-04-30T12:36:14.219Z,2.11
2023-04-30T12:37:14.231Z,1.86
2023-04-30T12:38:14.243Z,2.17
2023-04-30T12:39:14.240Z,2.21
2023-04-30T12:40:14.322Z,2.16
2023-04-30T12:41:14.316Z,1.99
2023-04-30T12:42:14.324Z,1.94
2023-04-30T12:43:14.377Z,2.21
2023-04-30T12:44:14.372Z,2.16
2023-04-30T12:45:14.416Z,2.01
2023-04-30T12:46:14.536Z,1.71
2023-04-30T12:47:14.434Z,2.11
2023-04-30T12:48:14.479Z,2.06
2023-04-30T12:49:14.456Z,2.14
2023-04-30T12:50:14.559Z,2.29
2023-04-30T12:51:14.580Z,2.17
2023-04-30T12:52:14.630Z,2.14
2023-04-30T12:53:14.641Z,1.61
2023-04-30T12:54:14.666Z,1.86
2023-04-30T12:55:14.715Z,1.94
2023-04-30T12:56:14.740Z,1.95
2023-04-30T12:57:14.762Z,2.08
2023-04-30T12:58:15.038Z,2.01
2023-04-30T12:59:14.845Z,2.31
2023-04-30T13:01:34.062Z,2.02
2023-04-30T13:02:34.095Z,2.02
2023-04-30T13:03:34.189Z,1.85
2023-04-30T13:04:34.009Z,1.74
2023-04-30T13:05:34.000Z,1.87
2023-04-30T13:06:34.054Z,2.36
2023-04-30T13:07:33.999Z,1.95
2023-04-30T13:08:45.718Z,1.71
2023-04-30T13:09:34.989Z,1.88
2023-04-30T13:10:34.014Z,1.96
2023-04-30T13:11:33.958Z,1.76
2023-04-30T13:12:33.949Z,1.75
2023-04-30T13:13:33.971Z,1.79
2023-04-30T13:14:33.952Z,1.83
2023-04-30T13:15:33.974Z,1.73
2023-04-30T13:16:34.085Z,2.05
2023-04-30T13:17:33.918Z,2.01
2023-04-30T13:18:33.919Z,1.81
2023-04-30T13:19:33.885Z,1.96
2023-04-30T13:20:33.899Z,1.75
2023-04-30T13:21:33.946Z,1.71